sensor_id;sensor_type;location;lat;lon;timestamp;P1;durP1;ratioP1;P2;durP2;ratioP2
13611;SDS011;6877;51.436;6.774;2023-03-01T00:01:48;19.20;;;11.48;;
13611;SDS011;6877;51.436;6.774;2023-03-01T00:04:20;19.00;;;10.63;;
13611;SDS011;6877;51.436;6.774;2023-03-01T00:06:51;21.20;;;11.88;;
13611;SDS011;6877;51.436;6.774;2023-03-01T00:09:22;21.60;;;11.93;;
13611;SDS011;6877;51.436;6.774;2023-03-01T00:11:49;26.27;;;13.02;;
13611;SDS011;6877;51.436;6.774;2023-03-01T00:14:16;17.00;;;11.40;;
13611;SDS011;6877;51.436;6.774;2023-03-01T00:16:43;23.60;;;11.15;;
13611;SDS011;6877;51.436;6.774;2023-03-01T00:19:16;20.48;;;12.00;;
13611;SDS011;6877;51.436;6.774;2023-03-01T00:21:44;21.65;;;12.32;;
13611;SDS011;6877;51.436;6.774;2023-03-01T00:24:16;20.00;;;10.65;;
13611;SDS011;6877;51.436;6.774;2023-03-01T00:26:42;20.23;;;12.43;;
13611;SDS011;6877;51.436;6.774;2023-03-01T00:29:14;21.85;;;11.10;;
13611;SDS011;6877;51.436;6.774;2023-03-01T00:31:41;18.02;;;11.25;;
13611;SDS011;6877;51.436;6.774;2023-03-01T00:34:07;23.65;;;12.10;;
13611;SDS011;6877;51.436;6.774;2023-03-01T00:36:34;18.85;;;11.00;;
13611;SDS011;6877;51.436;6.774;2023-03-01T00:39:03;19.63;;;10.93;;
13611;SDS011;6877;51.436;6.774;2023-03-01T00:41:33;17.08;;;10.85;;
13611;SDS011;6877;51.436;6.774;2023-03-01T00:44:00;21.13;;;12.38;;
13611;SDS011;6877;51.436;6.774;2023-03-01T00:46:27;18.58;;;10.73;;
13611;SDS011;6877;51.436;6.774;2023-03-01T00:48:53;17.90;;;10.70;;
13611;SDS011;6877;51.436;6.774;2023-03-01T00:51:24;24.77;;;10.98;;
13611;SDS011;6877;51.436;6.774;2023-03-01T00:54:00;18.77;;;11.98;;
13611;SDS011;6877;51.436;6.774;2023-03-01T00:56:33;20.10;;;12.15;;
13611;SDS011;6877;51.436;6.774;2023-03-01T00:59:05;21.77;;;11.00;;
13611;SDS011;6877;51.436;6.774;2023-03-01T01:01:33;16.63;;;10.63;;
13611;SDS011;6877;51.436;6.774;2023-03-01T01:04:11;16.87;;;11.20;;
13611;SDS011;6877;51.436;6.774;2023-03-01T01:06:42;17.40;;;10.70;;
13611;SDS011;6877;51.436;6.774;2023-03-01T01:09:12;20.67;;;10.38;;
13611;SDS011;6877;51.436;6.774;2023-03-01T01:11:44;22.50;;;10.23;;
13611;SDS011;6877;51.436;6.774;2023-03-01T01:14:17;20.53;;;10.47;;
13611;SDS011;6877;51.436;6.774;2023-03-01T01:16:44;19.20;;;10.67;;
13611;SDS011;6877;51.436;6.774;2023-03-01T01:19:11;23.60;;;10.90;;
13611;SDS011;6877;51.436;6.774;2023-03-01T01:21:44;19.50;;;11.20;;
13611;SDS011;6877;51.436;6.774;2023-03-01T01:24:15;20.80;;;12.27;;
13611;SDS011;6877;51.436;6.774;2023-03-01T01:26:47;22.60;;;12.03;;
13611;SDS011;6877;51.436;6.774;2023-03-01T01:29:14;28.57;;;12.30;;
13611;SDS011;6877;51.436;6.774;2023-03-01T01:31:46;22.33;;;11.75;;
13611;SDS011;6877;51.436;6.774;2023-03-01T01:34:19;21.05;;;10.75;;
13611;SDS011;6877;51.436;6.774;2023-03-01T01:36:48;16.70;;;10.15;;
13611;SDS011;6877;51.436;6.774;2023-03-01T01:39:15;17.02;;;9.63;;
13611;SDS011;6877;51.436;6.774;2023-03-01T01:41:42;17.42;;;10.20;;
13611;SDS011;6877;51.436;6.774;2023-03-01T01:46:44;13.57;;;9.00;;
13611;SDS011;6877;51.436;6.774;2023-03-01T01:51:51;17.27;;;10.67;;
13611;SDS011;6877;51.436;6.774;2023-03-01T01:55:02;15.40;;;8.90;;
13611;SDS011;6877;51.436;6.774;2023-03-01T01:57:37;19.20;;;11.23;;
13611;SDS011;6877;51.436;6.774;2023-03-01T02:00:17;19.20;;;10.30;;
13611;SDS011;6877;51.436;6.774;2023-03-01T02:02:57;22.40;;;11.13;;
13611;SDS011;6877;51.436;6.774;2023-03-01T02:07:59;19.93;;;11.80;;
13611;SDS011;6877;51.436;6.774;2023-03-01T02:10:32;24.67;;;11.90;;
13611;SDS011;6877;51.436;6.774;2023-03-01T02:13:05;22.08;;;11.35;;
13611;SDS011;6877;51.436;6.774;2023-03-01T02:15:33;23.93;;;12.20;;
13611;SDS011;6877;51.436;6.774;2023-03-01T02:18:02;21.48;;;11.30;;
13611;SDS011;6877;51.436;6.774;2023-03-01T02:23:07;28.90;;;11.15;;
13611;SDS011;6877;51.436;6.774;2023-03-01T02:25:36;25.10;;;11.93;;
13611;SDS011;6877;51.436;6.774;2023-03-01T02:30:40;22.83;;;12.32;;
13611;SDS011;6877;51.436;6.774;2023-03-01T02:33:34;24.87;;;12.37;;
13611;SDS011;6877;51.436;6.774;2023-03-01T02:36:09;21.37;;;11.10;;
13611;SDS011;6877;51.436;6.774;2023-03-01T02:38:42;19.20;;;11.20;;
13611;SDS011;6877;51.436;6.774;2023-03-01T02:41:15;25.37;;;11.13;;
13611;SDS011;6877;51.436;6.774;2023-03-01T02:43:48;22.47;;;12.60;;
13611;SDS011;6877;51.436;6.774;2023-03-01T02:46:16;23.00;;;10.73;;
13611;SDS011;6877;51.436;6.774;2023-03-01T02:48:58;24.07;;;12.43;;
13611;SDS011;6877;51.436;6.774;2023-03-01T02:56:29;25.13;;;11.13;;
13611;SDS011;6877;51.436;6.774;2023-03-01T02:58:56;19.53;;;11.07;;
13611;SDS011;6877;51.436;6.774;2023-03-01T03:01:26;22.63;;;12.90;;
13611;SDS011;6877;51.436;6.774;2023-03-01T03:04:16;19.50;;;11.87;;
13611;SDS011;6877;51.436;6.774;2023-03-01T03:06:49;19.50;;;12.27;;
13611;SDS011;6877;51.436;6.774;2023-03-01T03:09:22;22.13;;;12.70;;
13611;SDS011;6877;51.436;6.774;2023-03-01T03:11:53;19.60;;;11.40;;
13611;SDS011;6877;51.436;6.774;2023-03-01T03:14:19;25.20;;;12.33;;
13611;SDS011;6877;51.436;6.774;2023-03-01T03:16:51;20.55;;;11.75;;
13611;SDS011;6877;51.436;6.774;2023-03-01T03:19:17;23.88;;;13.63;;
13611;SDS011;6877;51.436;6.774;2023-03-01T03:21:45;18.75;;;13.20;;
13611;SDS011;6877;51.436;6.774;2023-03-01T03:24:17;22.47;;;12.90;;
13611;SDS011;6877;51.436;6.774;2023-03-01T03:26:44;26.88;;;11.10;;
13611;SDS011;6877;51.436;6.774;2023-03-01T03:29:10;18.90;;;11.88;;
13611;SDS011;6877;51.436;6.774;2023-03-01T03:31:41;33.40;;;13.68;;
13611;SDS011;6877;51.436;6.774;2023-03-01T03:34:13;20.15;;;11.85;;
13611;SDS011;6877;51.436;6.774;2023-03-01T03:36:52;21.40;;;11.93;;
13611;SDS011;6877;51.436;6.774;2023-03-01T03:39:28;23.08;;;12.98;;
13611;SDS011;6877;51.436;6.774;2023-03-01T03:42:00;28.02;;;12.93;;
13611;SDS011;6877;51.436;6.774;2023-03-01T03:44:32;25.17;;;12.70;;
13611;SDS011;6877;51.436;6.774;2023-03-01T03:46:58;25.13;;;13.43;;
13611;SDS011;6877;51.436;6.774;2023-03-01T03:49:30;20.73;;;13.33;;
13611;SDS011;6877;51.436;6.774;2023-03-01T03:51:56;25.47;;;12.87;;
13611;SDS011;6877;51.436;6.774;2023-03-01T03:54:23;23.37;;;13.17;;
13611;SDS011;6877;51.436;6.774;2023-03-01T03:56:54;23.42;;;12.07;;
13611;SDS011;6877;51.436;6.774;2023-03-01T03:59:20;24.95;;;13.43;;
13611;SDS011;6877;51.436;6.774;2023-03-01T04:01:52;23.60;;;12.68;;
13611;SDS011;6877;51.436;6.774;2023-03-01T04:04:18;21.77;;;11.57;;
13611;SDS011;6877;51.436;6.774;2023-03-01T04:06:49;24.45;;;12.52;;
13611;SDS011;6877;51.436;6.774;2023-03-01T04:09:16;23.47;;;14.03;;
13611;SDS011;6877;51.436;6.774;2023-03-01T04:11:42;21.70;;;12.68;;
13611;SDS011;6877;51.436;6.774;2023-03-01T04:14:14;21.10;;;12.77;;
13611;SDS011;6877;51.436;6.774;2023-03-01T04:16:45;31.33;;;13.30;;
13611;SDS011;6877;51.436;6.774;2023-03-01T04:19:16;25.40;;;13.03;;
13611;SDS011;6877;51.436;6.774;2023-03-01T04:21:42;22.87;;;12.60;;
13611;SDS011;6877;51.436;6.774;2023-03-01T04:24:14;26.20;;;13.90;;
13611;SDS011;6877;51.436;6.774;2023-03-01T04:26:45;19.83;;;11.23;;
13611;SDS011;6877;51.436;6.774;2023-03-01T04:29:16;22.23;;;13.73;;
13611;SDS011;6877;51.436;6.774;2023-03-01T04:31:48;26.10;;;12.63;;
13611;SDS011;6877;51.436;6.774;2023-03-01T04:34:15;27.37;;;13.00;;
13611;SDS011;6877;51.436;6.774;2023-03-01T04:36:41;24.13;;;11.80;;
13611;SDS011;6877;51.436;6.774;2023-03-01T04:39:12;32.30;;;13.63;;
13611;SDS011;6877;51.436;6.774;2023-03-01T04:41:39;22.80;;;11.73;;
13611;SDS011;6877;51.436;6.774;2023-03-01T04:44:07;21.77;;;12.43;;
13611;SDS011;6877;51.436;6.774;2023-03-01T04:46:35;24.13;;;12.23;;
13611;SDS011;6877;51.436;6.774;2023-03-01T04:49:06;27.93;;;12.53;;
13611;SDS011;6877;51.436;6.774;2023-03-01T04:51:38;24.80;;;12.87;;
13611;SDS011;6877;51.436;6.774;2023-03-01T04:54:04;24.33;;;13.13;;
13611;SDS011;6877;51.436;6.774;2023-03-01T04:56:39;29.15;;;13.38;;
13611;SDS011;6877;51.436;6.774;2023-03-01T04:59:06;24.30;;;12.47;;
13611;SDS011;6877;51.436;6.774;2023-03-01T05:01:38;29.90;;;12.57;;
13611;SDS011;6877;51.436;6.774;2023-03-01T05:04:05;21.67;;;13.03;;
13611;SDS011;6877;51.436;6.774;2023-03-01T05:06:31;22.43;;;13.33;;
13611;SDS011;6877;51.436;6.774;2023-03-01T05:08:58;22.63;;;12.37;;
13611;SDS011;6877;51.436;6.774;2023-03-01T05:11:30;21.50;;;12.73;;
13611;SDS011;6877;51.436;6.774;2023-03-01T05:14:02;28.30;;;14.07;;
13611;SDS011;6877;51.436;6.774;2023-03-01T05:16:29;29.30;;;13.30;;
13611;SDS011;6877;51.436;6.774;2023-03-01T05:19:02;25.97;;;12.40;;
13611;SDS011;6877;51.436;6.774;2023-03-01T05:21:42;25.40;;;12.97;;
13611;SDS011;6877;51.436;6.774;2023-03-01T05:24:28;21.90;;;13.07;;
13611;SDS011;6877;51.436;6.774;2023-03-01T05:26:55;32.43;;;13.90;;
13611;SDS011;6877;51.436;6.774;2023-03-01T05:29:27;23.53;;;12.50;;
13611;SDS011;6877;51.436;6.774;2023-03-01T05:31:57;23.13;;;12.70;;
13611;SDS011;6877;51.436;6.774;2023-03-01T05:34:31;23.53;;;13.17;;
13611;SDS011;6877;51.436;6.774;2023-03-01T05:36:59;23.03;;;13.53;;
13611;SDS011;6877;51.436;6.774;2023-03-01T05:39:26;24.67;;;12.90;;
13611;SDS011;6877;51.436;6.774;2023-03-01T05:41:54;26.73;;;13.07;;
13611;SDS011;6877;51.436;6.774;2023-03-01T05:44:22;24.07;;;13.93;;
13611;SDS011;6877;51.436;6.774;2023-03-01T05:46:54;21.53;;;10.90;;
13611;SDS011;6877;51.436;6.774;2023-03-01T05:49:29;28.97;;;13.50;;
13611;SDS011;6877;51.436;6.774;2023-03-01T05:52:01;23.10;;;12.23;;
13611;SDS011;6877;51.436;6.774;2023-03-01T05:54:27;21.50;;;12.83;;
13611;SDS011;6877;51.436;6.774;2023-03-01T05:56:53;25.20;;;13.40;;
13611;SDS011;6877;51.436;6.774;2023-03-01T05:59:20;30.07;;;14.50;;
13611;SDS011;6877;51.436;6.774;2023-03-01T06:01:46;24.17;;;13.30;;
13611;SDS011;6877;51.436;6.774;2023-03-01T06:04:13;22.30;;;13.37;;
13611;SDS011;6877;51.436;6.774;2023-03-01T06:06:39;21.87;;;13.17;;
13611;SDS011;6877;51.436;6.774;2023-03-01T06:09:06;24.43;;;13.77;;
13611;SDS011;6877;51.436;6.774;2023-03-01T06:11:38;25.57;;;14.77;;
13611;SDS011;6877;51.436;6.774;2023-03-01T06:14:05;25.90;;;14.10;;
13611;SDS011;6877;51.436;6.774;2023-03-01T06:16:38;23.60;;;12.57;;
13611;SDS011;6877;51.436;6.774;2023-03-01T06:19:10;28.33;;;14.20;;
13611;SDS011;6877;51.436;6.774;2023-03-01T06:21:41;26.37;;;14.60;;
13611;SDS011;6877;51.436;6.774;2023-03-01T06:24:08;26.70;;;14.77;;
13611;SDS011;6877;51.436;6.774;2023-03-01T06:26:40;30.77;;;13.50;;
13611;SDS011;6877;51.436;6.774;2023-03-01T06:29:06;27.60;;;14.17;;
13611;SDS011;6877;51.436;6.774;2023-03-01T06:31:39;22.03;;;13.80;;
13611;SDS011;6877;51.436;6.774;2023-03-01T06:34:06;31.23;;;14.83;;
13611;SDS011;6877;51.436;6.774;2023-03-01T06:36:32;23.50;;;12.97;;
13611;SDS011;6877;51.436;6.774;2023-03-01T06:38:58;31.47;;;13.93;;
13611;SDS011;6877;51.436;6.774;2023-03-01T06:41:25;24.77;;;13.73;;
13611;SDS011;6877;51.436;6.774;2023-03-01T06:43:56;23.90;;;12.55;;
13611;SDS011;6877;51.436;6.774;2023-03-01T06:46:23;30.70;;;11.98;;
13611;SDS011;6877;51.436;6.774;2023-03-01T06:48:49;23.75;;;12.65;;
13611;SDS011;6877;51.436;6.774;2023-03-01T06:51:15;24.37;;;13.93;;
13611;SDS011;6877;51.436;6.774;2023-03-01T06:53:42;27.67;;;13.82;;
13611;SDS011;6877;51.436;6.774;2023-03-01T06:56:13;24.83;;;11.77;;
13611;SDS011;6877;51.436;6.774;2023-03-01T06:58:44;24.07;;;12.67;;
13611;SDS011;6877;51.436;6.774;2023-03-01T07:01:11;27.13;;;13.83;;
13611;SDS011;6877;51.436;6.774;2023-03-01T07:03:42;24.17;;;12.30;;
13611;SDS011;6877;51.436;6.774;2023-03-01T07:06:10;29.67;;;13.87;;
13611;SDS011;6877;51.436;6.774;2023-03-01T07:08:36;18.85;;;12.80;;
13611;SDS011;6877;51.436;6.774;2023-03-01T07:11:03;24.60;;;14.10;;
13611;SDS011;6877;51.436;6.774;2023-03-01T07:13:34;25.77;;;13.93;;
13611;SDS011;6877;51.436;6.774;2023-03-01T07:16:01;23.27;;;12.00;;
13611;SDS011;6877;51.436;6.774;2023-03-01T07:18:27;27.23;;;14.80;;
13611;SDS011;6877;51.436;6.774;2023-03-01T07:20:54;27.37;;;13.10;;
13611;SDS011;6877;51.436;6.774;2023-03-01T07:23:25;25.08;;;13.98;;
13611;SDS011;6877;51.436;6.774;2023-03-01T07:25:52;28.02;;;13.55;;
13611;SDS011;6877;51.436;6.774;2023-03-01T07:28:20;24.52;;;13.23;;
13611;SDS011;6877;51.436;6.774;2023-03-01T07:30:48;24.80;;;13.95;;
13611;SDS011;6877;51.436;6.774;2023-03-01T07:33:19;26.90;;;13.65;;
13611;SDS011;6877;51.436;6.774;2023-03-01T07:35:46;27.05;;;13.35;;
13611;SDS011;6877;51.436;6.774;2023-03-01T07:38:17;23.98;;;14.10;;
13611;SDS011;6877;51.436;6.774;2023-03-01T07:40:44;23.85;;;12.18;;
13611;SDS011;6877;51.436;6.774;2023-03-01T07:43:10;32.60;;;14.43;;
13611;SDS011;6877;51.436;6.774;2023-03-01T07:45:41;31.13;;;13.68;;
13611;SDS011;6877;51.436;6.774;2023-03-01T07:48:13;32.08;;;14.93;;
13611;SDS011;6877;51.436;6.774;2023-03-01T07:50:44;24.08;;;12.93;;
13611;SDS011;6877;51.436;6.774;2023-03-01T07:53:10;22.80;;;13.10;;
13611;SDS011;6877;51.436;6.774;2023-03-01T07:55:42;24.85;;;13.05;;
13611;SDS011;6877;51.436;6.774;2023-03-01T07:58:08;26.63;;;14.95;;
13611;SDS011;6877;51.436;6.774;2023-03-01T08:00:34;24.75;;;12.98;;
13611;SDS011;6877;51.436;6.774;2023-03-01T08:03:01;20.45;;;12.65;;
13611;SDS011;6877;51.436;6.774;2023-03-01T08:05:33;28.27;;;13.20;;
13611;SDS011;6877;51.436;6.774;2023-03-01T08:07:59;25.20;;;13.07;;
13611;SDS011;6877;51.436;6.774;2023-03-01T08:10:31;21.67;;;11.73;;
13611;SDS011;6877;51.436;6.774;2023-03-01T08:13:02;25.65;;;12.88;;
13611;SDS011;6877;51.436;6.774;2023-03-01T08:15:33;25.75;;;11.07;;
13611;SDS011;6877;51.436;6.774;2023-03-01T08:18:05;17.27;;;10.30;;
13611;SDS011;6877;51.436;6.774;2023-03-01T08:20:32;14.05;;;9.40;;
13611;SDS011;6877;51.436;6.774;2023-03-01T08:23:04;19.05;;;10.80;;
13611;SDS011;6877;51.436;6.774;2023-03-01T08:25:30;13.88;;;9.55;;
13611;SDS011;6877;51.436;6.774;2023-03-01T08:27:56;25.08;;;10.85;;
13611;SDS011;6877;51.436;6.774;2023-03-01T08:30:28;22.40;;;10.70;;
13611;SDS011;6877;51.436;6.774;2023-03-01T08:32:54;17.02;;;10.57;;
13611;SDS011;6877;51.436;6.774;2023-03-01T08:35:25;15.35;;;10.25;;
13611;SDS011;6877;51.436;6.774;2023-03-01T08:37:57;20.95;;;11.18;;
13611;SDS011;6877;51.436;6.774;2023-03-01T08:40:23;20.00;;;11.30;;
13611;SDS011;6877;51.436;6.774;2023-03-01T08:42:55;14.73;;;10.02;;
13611;SDS011;6877;51.436;6.774;2023-03-01T08:45:21;15.85;;;10.23;;
13611;SDS011;6877;51.436;6.774;2023-03-01T08:47:52;13.32;;;9.77;;
13611;SDS011;6877;51.436;6.774;2023-03-01T08:50:19;19.17;;;9.98;;
13611;SDS011;6877;51.436;6.774;2023-03-01T08:52:50;14.32;;;9.90;;
13611;SDS011;6877;51.436;6.774;2023-03-01T08:55:22;14.52;;;9.60;;
13611;SDS011;6877;51.436;6.774;2023-03-01T08:57:48;16.17;;;9.73;;
13611;SDS011;6877;51.436;6.774;2023-03-01T09:00:15;16.80;;;9.63;;
13611;SDS011;6877;51.436;6.774;2023-03-01T09:02:41;13.55;;;9.30;;
13611;SDS011;6877;51.436;6.774;2023-03-01T09:05:13;13.98;;;9.93;;
13611;SDS011;6877;51.436;6.774;2023-03-01T09:07:44;18.30;;;9.98;;
13611;SDS011;6877;51.436;6.774;2023-03-01T09:10:16;14.02;;;9.70;;
13611;SDS011;6877;51.436;6.774;2023-03-01T09:12:42;15.15;;;9.93;;
13611;SDS011;6877;51.436;6.774;2023-03-01T09:15:13;11.63;;;8.82;;
13611;SDS011;6877;51.436;6.774;2023-03-01T09:17:40;15.93;;;9.55;;
13611;SDS011;6877;51.436;6.774;2023-03-01T09:20:11;12.85;;;9.35;;
13611;SDS011;6877;51.436;6.774;2023-03-01T09:22:38;12.55;;;9.10;;
13611;SDS011;6877;51.436;6.774;2023-03-01T09:25:04;12.13;;;9.30;;
13611;SDS011;6877;51.436;6.774;2023-03-01T09:27:36;11.82;;;8.63;;
13611;SDS011;6877;51.436;6.774;2023-03-01T09:30:08;16.33;;;9.75;;
13611;SDS011;6877;51.436;6.774;2023-03-01T09:32:35;15.95;;;9.25;;
13611;SDS011;6877;51.436;6.774;2023-03-01T09:35:01;13.85;;;9.55;;
13611;SDS011;6877;51.436;6.774;2023-03-01T09:37:36;13.82;;;9.85;;
13611;SDS011;6877;51.436;6.774;2023-03-01T09:40:11;13.20;;;8.68;;
13611;SDS011;6877;51.436;6.774;2023-03-01T09:42:51;17.98;;;9.55;;
13611;SDS011;6877;51.436;6.774;2023-03-01T09:45:33;13.40;;;10.30;;
13611;SDS011;6877;51.436;6.774;2023-03-01T09:48:02;13.95;;;9.93;;
13611;SDS011;6877;51.436;6.774;2023-03-01T09:50:34;14.55;;;9.13;;
13611;SDS011;6877;51.436;6.774;2023-03-01T09:53:13;14.98;;;9.63;;
13611;SDS011;6877;51.436;6.774;2023-03-01T10:01:10;17.17;;;10.02;;
13611;SDS011;6877;51.436;6.774;2023-03-01T10:03:44;13.50;;;9.52;;
13611;SDS011;6877;51.436;6.774;2023-03-01T10:06:29;13.82;;;9.05;;
13611;SDS011;6877;51.436;6.774;2023-03-01T10:09:02;12.13;;;9.30;;
13611;SDS011;6877;51.436;6.774;2023-03-01T10:11:42;14.18;;;9.20;;
13611;SDS011;6877;51.436;6.774;2023-03-01T10:19:41;14.20;;;8.75;;
13611;SDS011;6877;51.436;6.774;2023-03-01T10:22:13;16.20;;;9.02;;
13611;SDS011;6877;51.436;6.774;2023-03-01T10:24:41;12.90;;;8.80;;
13611;SDS011;6877;51.436;6.774;2023-03-01T10:27:14;12.57;;;8.68;;
13611;SDS011;6877;51.436;6.774;2023-03-01T10:32:42;15.68;;;10.57;;
13611;SDS011;6877;51.436;6.774;2023-03-01T10:35:22;12.18;;;8.70;;
13611;SDS011;6877;51.436;6.774;2023-03-01T10:38:12;10.98;;;8.23;;
13611;SDS011;6877;51.436;6.774;2023-03-01T10:40:55;17.05;;;9.13;;
13611;SDS011;6877;51.436;6.774;2023-03-01T10:43:23;16.90;;;9.07;;
13611;SDS011;6877;51.436;6.774;2023-03-01T10:45:52;12.75;;;8.25;;
13611;SDS011;6877;51.436;6.774;2023-03-01T10:48:19;20.30;;;9.18;;
13611;SDS011;6877;51.436;6.774;2023-03-01T10:56:10;14.75;;;8.07;;
13611;SDS011;6877;51.436;6.774;2023-03-01T10:58:58;16.70;;;9.20;;
13611;SDS011;6877;51.436;6.774;2023-03-01T11:01:33;14.85;;;8.77;;
13611;SDS011;6877;51.436;6.774;2023-03-01T11:06:39;12.50;;;7.93;;
13611;SDS011;6877;51.436;6.774;2023-03-01T11:11:44;11.80;;;7.95;;
13611;SDS011;6877;51.436;6.774;2023-03-01T11:16:44;12.98;;;8.75;;
13611;SDS011;6877;51.436;6.774;2023-03-01T11:27:17;14.60;;;8.77;;
13611;SDS011;6877;51.436;6.774;2023-03-01T11:29:53;13.07;;;8.02;;
13611;SDS011;6877;51.436;6.774;2023-03-01T11:32:41;18.20;;;8.20;;
13611;SDS011;6877;51.436;6.774;2023-03-01T11:35:21;12.48;;;8.20;;
13611;SDS011;6877;51.436;6.774;2023-03-01T11:40:52;14.07;;;7.57;;
13611;SDS011;6877;51.436;6.774;2023-03-01T12:11:51;20.70;;;8.20;;
13611;SDS011;6877;51.436;6.774;2023-03-01T12:17:28;14.00;;;7.03;;
13611;SDS011;6877;51.436;6.774;2023-03-01T12:23:07;12.38;;;7.63;;
13611;SDS011;6877;51.436;6.774;2023-03-01T12:26:13;12.27;;;6.93;;
13611;SDS011;6877;51.436;6.774;2023-03-01T12:28:48;15.25;;;8.52;;
13611;SDS011;6877;51.436;6.774;2023-03-01T12:31:36;15.23;;;9.75;;
13611;SDS011;6877;51.436;6.774;2023-03-01T12:34:12;16.45;;;8.30;;
13611;SDS011;6877;51.436;6.774;2023-03-01T12:50:57;18.48;;;7.35;;
13611;SDS011;6877;51.436;6.774;2023-03-01T12:53:34;13.30;;;7.85;;
13611;SDS011;6877;51.436;6.774;2023-03-01T12:56:28;13.55;;;8.05;;
13611;SDS011;6877;51.436;6.774;2023-03-01T13:10:15;18.20;;;7.55;;
13611;SDS011;6877;51.436;6.774;2023-03-01T13:13:14;13.60;;;7.97;;
13611;SDS011;6877;51.436;6.774;2023-03-01T13:15:52;15.60;;;8.27;;
13611;SDS011;6877;51.436;6.774;2023-03-01T13:20:52;12.68;;;7.22;;
13611;SDS011;6877;51.436;6.774;2023-03-01T13:31:02;15.45;;;7.18;;
13611;SDS011;6877;51.436;6.774;2023-03-01T13:33:41;13.13;;;7.85;;
13611;SDS011;6877;51.436;6.774;2023-03-01T13:38:59;16.98;;;7.80;;
13611;SDS011;6877;51.436;6.774;2023-03-01T13:44:24;13.48;;;8.55;;
13611;SDS011;6877;51.436;6.774;2023-03-01T13:47:01;14.55;;;7.95;;
13611;SDS011;6877;51.436;6.774;2023-03-01T13:49:47;19.85;;;7.00;;
13611;SDS011;6877;51.436;6.774;2023-03-01T13:54:51;12.93;;;7.13;;
13611;SDS011;6877;51.436;6.774;2023-03-01T13:57:21;19.75;;;7.85;;
13611;SDS011;6877;51.436;6.774;2023-03-01T13:59:56;16.55;;;8.07;;
13611;SDS011;6877;51.436;6.774;2023-03-01T14:02:28;13.20;;;7.07;;
13611;SDS011;6877;51.436;6.774;2023-03-01T14:04:58;12.48;;;7.22;;
13611;SDS011;6877;51.436;6.774;2023-03-01T14:07:26;11.35;;;8.07;;
13611;SDS011;6877;51.436;6.774;2023-03-01T14:10:02;14.00;;;7.32;;
13611;SDS011;6877;51.436;6.774;2023-03-01T14:15:37;11.00;;;7.13;;
13611;SDS011;6877;51.436;6.774;2023-03-01T14:20:57;17.30;;;8.98;;
13611;SDS011;6877;51.436;6.774;2023-03-01T14:23:24;14.52;;;8.18;;
13611;SDS011;6877;51.436;6.774;2023-03-01T14:25:56;12.40;;;8.05;;
13611;SDS011;6877;51.436;6.774;2023-03-01T14:28:31;17.27;;;9.25;;
13611;SDS011;6877;51.436;6.774;2023-03-01T14:31:03;13.43;;;8.07;;
13611;SDS011;6877;51.436;6.774;2023-03-01T14:33:56;15.85;;;7.78;;
13611;SDS011;6877;51.436;6.774;2023-03-01T14:36:29;15.30;;;8.13;;
13611;SDS011;6877;51.436;6.774;2023-03-01T14:38:57;12.80;;;8.40;;
13611;SDS011;6877;51.436;6.774;2023-03-01T14:41:32;15.50;;;8.07;;
13611;SDS011;6877;51.436;6.774;2023-03-01T14:44:02;14.82;;;7.90;;
13611;SDS011;6877;51.436;6.774;2023-03-01T14:46:38;18.42;;;8.40;;
13611;SDS011;6877;51.436;6.774;2023-03-01T14:49:19;16.55;;;8.40;;
13611;SDS011;6877;51.436;6.774;2023-03-01T14:51:53;16.65;;;8.63;;
13611;SDS011;6877;51.436;6.774;2023-03-01T14:54:39;17.08;;;8.75;;
13611;SDS011;6877;51.436;6.774;2023-03-01T14:57:14;16.63;;;8.93;;
13611;SDS011;6877;51.436;6.774;2023-03-01T14:59:42;18.50;;;9.48;;
13611;SDS011;6877;51.436;6.774;2023-03-01T15:02:16;14.20;;;7.80;;
13611;SDS011;6877;51.436;6.774;2023-03-01T15:04:46;15.27;;;9.25;;
13611;SDS011;6877;51.436;6.774;2023-03-01T15:07:14;20.83;;;11.02;;
13611;SDS011;6877;51.436;6.774;2023-03-01T15:09:41;18.67;;;9.40;;
13611;SDS011;6877;51.436;6.774;2023-03-01T15:15:00;17.90;;;9.23;;
13611;SDS011;6877;51.436;6.774;2023-03-01T15:17:36;14.90;;;9.43;;
13611;SDS011;6877;51.436;6.774;2023-03-01T15:20:05;17.77;;;9.32;;
13611;SDS011;6877;51.436;6.774;2023-03-01T15:22:47;15.75;;;9.85;;
13611;SDS011;6877;51.436;6.774;2023-03-01T15:25:15;16.60;;;8.90;;
13611;SDS011;6877;51.436;6.774;2023-03-01T15:27:45;14.20;;;9.38;;
13611;SDS011;6877;51.436;6.774;2023-03-01T15:30:20;18.20;;;9.13;;
13611;SDS011;6877;51.436;6.774;2023-03-01T15:33:15;17.45;;;8.50;;
13611;SDS011;6877;51.436;6.774;2023-03-01T15:35:46;14.23;;;8.40;;
13611;SDS011;6877;51.436;6.774;2023-03-01T15:38:36;16.83;;;8.82;;
13611;SDS011;6877;51.436;6.774;2023-03-01T15:43:51;12.45;;;8.35;;
13611;SDS011;6877;51.436;6.774;2023-03-01T15:46:31;14.27;;;7.68;;
13611;SDS011;6877;51.436;6.774;2023-03-01T15:49:04;13.85;;;8.05;;
13611;SDS011;6877;51.436;6.774;2023-03-01T15:51:45;13.82;;;7.53;;
13611;SDS011;6877;51.436;6.774;2023-03-01T15:54:21;19.83;;;9.20;;
13611;SDS011;6877;51.436;6.774;2023-03-01T15:56:54;11.88;;;7.38;;
13611;SDS011;6877;51.436;6.774;2023-03-01T15:59:22;14.57;;;8.25;;
13611;SDS011;6877;51.436;6.774;2023-03-01T16:01:48;17.35;;;9.18;;
13611;SDS011;6877;51.436;6.774;2023-03-01T16:04:20;14.38;;;8.85;;
13611;SDS011;6877;51.436;6.774;2023-03-01T16:06:47;13.38;;;8.95;;
13611;SDS011;6877;51.436;6.774;2023-03-01T16:09:23;15.65;;;9.35;;
13611;SDS011;6877;51.436;6.774;2023-03-01T16:11:56;16.95;;;8.60;;
13611;SDS011;6877;51.436;6.774;2023-03-01T16:14:22;15.57;;;8.88;;
13611;SDS011;6877;51.436;6.774;2023-03-01T16:16:53;16.08;;;10.20;;
13611;SDS011;6877;51.436;6.774;2023-03-01T16:19:20;14.57;;;8.20;;
13611;SDS011;6877;51.436;6.774;2023-03-01T16:21:51;14.15;;;7.95;;
13611;SDS011;6877;51.436;6.774;2023-03-01T16:24:18;14.38;;;7.93;;
13611;SDS011;6877;51.436;6.774;2023-03-01T16:26:44;17.15;;;8.35;;
13611;SDS011;6877;51.436;6.774;2023-03-01T16:29:11;15.25;;;7.20;;
13611;SDS011;6877;51.436;6.774;2023-03-01T16:31:37;12.60;;;7.18;;
13611;SDS011;6877;51.436;6.774;2023-03-01T16:34:03;14.52;;;7.85;;
13611;SDS011;6877;51.436;6.774;2023-03-01T16:36:35;12.07;;;8.00;;
13611;SDS011;6877;51.436;6.774;2023-03-01T16:39:08;12.40;;;7.63;;
13611;SDS011;6877;51.436;6.774;2023-03-01T16:41:35;14.13;;;7.88;;
13611;SDS011;6877;51.436;6.774;2023-03-01T16:44:06;14.18;;;8.30;;
13611;SDS011;6877;51.436;6.774;2023-03-01T16:46:33;14.45;;;7.88;;
13611;SDS011;6877;51.436;6.774;2023-03-01T16:49:04;14.98;;;8.57;;
13611;SDS011;6877;51.436;6.774;2023-03-01T16:51:30;14.75;;;8.43;;
13611;SDS011;6877;51.436;6.774;2023-03-01T16:53:58;12.55;;;7.13;;
13611;SDS011;6877;51.436;6.774;2023-03-01T16:56:24;13.55;;;8.45;;
13611;SDS011;6877;51.436;6.774;2023-03-01T16:58:51;14.20;;;8.35;;
13611;SDS011;6877;51.436;6.774;2023-03-01T17:01:18;15.02;;;8.80;;
13611;SDS011;6877;51.436;6.774;2023-03-01T17:03:51;14.93;;;8.48;;
13611;SDS011;6877;51.436;6.774;2023-03-01T17:06:18;18.98;;;8.18;;
13611;SDS011;6877;51.436;6.774;2023-03-01T17:08:46;15.25;;;7.47;;
13611;SDS011;6877;51.436;6.774;2023-03-01T17:11:18;16.75;;;9.07;;
13611;SDS011;6877;51.436;6.774;2023-03-01T17:13:46;14.88;;;8.30;;
13611;SDS011;6877;51.436;6.774;2023-03-01T17:16:18;14.35;;;8.65;;
13611;SDS011;6877;51.436;6.774;2023-03-01T17:18:45;15.02;;;8.40;;
13611;SDS011;6877;51.436;6.774;2023-03-01T17:21:18;12.43;;;7.78;;
13611;SDS011;6877;51.436;6.774;2023-03-01T17:23:49;15.27;;;8.00;;
13611;SDS011;6877;51.436;6.774;2023-03-01T17:26:22;17.30;;;8.80;;
13611;SDS011;6877;51.436;6.774;2023-03-01T17:28:48;16.75;;;6.53;;
13611;SDS011;6877;51.436;6.774;2023-03-01T17:31:18;14.98;;;7.70;;